createdAt,value
2018-10-05T00:00:37.995Z,24.10
2018-10-05T00:03:08.138Z,24.60
2018-10-05T00:05:37.282Z,34.03
2018-10-05T00:08:08.621Z,28.73
2018-10-05T00:10:40.811Z,28.00
2018-10-05T00:13:10.980Z,31.47
2018-10-05T00:15:42.246Z,30.83
2018-10-05T00:18:11.757Z,25.63
2018-10-05T00:20:40.493Z,26.47
2018-10-05T00:23:09.786Z,28.40
2018-10-05T00:25:38.627Z,29.43
2018-10-05T00:28:07.177Z,26.30
2018-10-05T00:30:35.969Z,26.73
2018-10-05T00:33:06.741Z,29.70
2018-10-05T00:35:35.411Z,26.47
2018-10-05T00:38:05.189Z,27.93
2018-10-05T00:40:33.876Z,32.63
2018-10-05T00:43:03.762Z,28.60
2018-10-05T00:45:32.873Z,27.70
2018-10-05T00:48:01.401Z,25.23
2018-10-05T00:50:31.782Z,31.60
2018-10-05T00:53:00.713Z,24.53
2018-10-05T00:55:29.585Z,28.50
2018-10-05T00:57:59.343Z,28.73
2018-10-05T01:00:28.739Z,27.07
2018-10-05T01:02:57.324Z,31.37
2018-10-05T01:05:26.220Z,24.97
2018-10-05T01:07:54.815Z,25.90
2018-10-05T01:10:23.424Z,27.50
2018-10-05T01:12:53.020Z,29.13
2018-10-05T01:15:22.041Z,29.70
2018-10-05T01:17:50.534Z,27.13
2018-10-05T01:20:19.122Z,24.00
2018-10-05T01:22:48.221Z,28.50
2018-10-05T01:25:17.258Z,28.60
2018-10-05T01:27:47.052Z,27.70
2018-10-05T01:30:15.926Z,35.77
2018-10-05T01:32:44.651Z,31.37
2018-10-05T01:35:15.582Z,27.37
2018-10-05T01:37:45.146Z,29.20
2018-10-05T01:40:14.400Z,28.03
2018-10-05T01:42:43.368Z,31.93
2018-10-05T01:45:12.430Z,30.33
2018-10-05T01:47:42.729Z,33.77
2018-10-05T01:50:11.855Z,26.53
2018-10-05T01:52:40.595Z,36.50
2018-10-05T01:55:09.206Z,31.63
2018-10-05T01:57:38.666Z,25.83
2018-10-05T02:00:07.936Z,27.67
2018-10-05T02:02:36.589Z,31.53
2018-10-05T02:05:05.167Z,38.17
2018-10-05T02:07:33.790Z,35.73
2018-10-05T02:10:02.244Z,34.77
2018-10-05T02:12:31.872Z,37.90
2018-10-05T02:15:00.343Z,34.77
2018-10-05T02:17:28.843Z,32.20
2018-10-05T02:19:57.249Z,38.23
2018-10-05T02:22:25.761Z,39.70
2018-10-05T02:24:54.212Z,42.20
2018-10-05T02:27:23.103Z,28.40
2018-10-05T02:29:51.723Z,41.67
2018-10-05T02:32:20.361Z,31.60
2018-10-05T02:34:48.843Z,40.00
2018-10-05T02:37:17.298Z,30.70
2018-10-05T02:39:47.005Z,30.90
2018-10-05T02:42:15.398Z,27.13
2018-10-05T02:44:45.792Z,37.67
2018-10-05T02:47:14.180Z,36.90
2018-10-05T02:49:42.719Z,31.60
2018-10-05T02:52:11.146Z,35.20
2018-10-05T02:54:39.868Z,28.37
2018-10-05T02:57:08.412Z,26.77
2018-10-05T02:59:37.738Z,34.23
2018-10-05T03:02:15.537Z,31.10
2018-10-05T03:04:43.987Z,39.50
2018-10-05T03:07:12.859Z,30.90
2018-10-05T03:09:41.418Z,35.53
2018-10-05T03:12:10.105Z,45.23
2018-10-05T03:14:38.595Z,37.47
2018-10-05T03:17:07.642Z,31.87
2018-10-05T03:19:36.468Z,43.33
2018-10-05T03:22:05.188Z,38.00
2018-10-05T03:24:33.694Z,33.90
2018-10-05T03:27:02.443Z,34.07
2018-10-05T03:29:31.133Z,34.47
2018-10-05T03:32:00.178Z,36.90
2018-10-05T03:34:28.660Z,27.83
2018-10-05T03:36:57.115Z,30.53
2018-10-05T03:39:26.633Z,33.50
2018-10-05T03:41:56.704Z,29.43
2018-10-05T03:44:25.250Z,39.10
2018-10-05T03:46:53.987Z,37.30
2018-10-05T03:49:22.635Z,38.37
2018-10-05T03:51:51.050Z,43.17
2018-10-05T03:54:20.160Z,29.60
2018-10-05T03:56:49.061Z,27.97
2018-10-05T03:59:18.083Z,29.00
2018-10-05T04:01:46.765Z,33.23
2018-10-05T04:04:15.311Z,24.83
2018-10-05T04:06:44.002Z,33.47
2018-10-05T04:09:12.834Z,37.03
2018-10-05T04:11:41.372Z,39.33
2018-10-05T04:14:11.106Z,36.27
2018-10-05T04:16:39.725Z,37.97
2018-10-05T04:19:09.510Z,32.37
2018-10-05T04:21:37.992Z,39.80
2018-10-05T04:24:06.868Z,29.33
2018-10-05T04:26:35.426Z,37.17
2018-10-05T04:29:03.937Z,29.00
2018-10-05T04:31:32.974Z,27.33
2018-10-05T04:34:01.734Z,28.03
2018-10-05T04:36:30.571Z,34.70
2018-10-05T04:39:01.002Z,34.67
2018-10-05T04:41:29.557Z,30.10
2018-10-05T04:43:58.096Z,38.97
2018-10-05T04:46:26.961Z,28.10
2018-10-05T04:48:55.400Z,29.77
2018-10-05T04:51:24.137Z,35.23
2018-10-05T04:53:52.784Z,27.90
2018-10-05T04:56:21.388Z,28.43
2018-10-05T04:58:50.069Z,39.30
2018-10-05T05:01:18.637Z,30.83
2018-10-05T05:03:47.163Z,38.87
2018-10-05T05:06:15.596Z,26.77
2018-10-05T05:08:44.132Z,32.23
2018-10-05T05:11:12.703Z,35.70
2018-10-05T05:13:41.143Z,32.40
2018-10-05T05:16:09.814Z,33.17
2018-10-05T05:18:38.433Z,39.60
2018-10-05T05:21:07.150Z,39.37
2018-10-05T05:23:35.582Z,36.03
2018-10-05T05:26:04.062Z,29.83
2018-10-05T05:28:32.822Z,39.07
2018-10-05T05:31:05.636Z,28.10
2018-10-05T05:33:34.372Z,34.93
2018-10-05T05:36:02.863Z,36.20
2018-10-05T05:38:34.281Z,35.53
2018-10-05T05:41:02.861Z,42.30
2018-10-05T05:43:31.476Z,43.07
2018-10-05T05:46:00.161Z,36.40
2018-10-05T05:48:28.856Z,30.10
2018-10-05T05:50:59.095Z,36.43
2018-10-05T05:53:28.315Z,35.00
2018-10-05T05:55:57.786Z,35.40
2018-10-05T05:58:26.177Z,37.17
2018-10-05T06:00:54.709Z,30.40
2018-10-05T06:03:24.061Z,30.40
2018-10-05T06:05:52.784Z,34.93
2018-10-05T06:08:21.408Z,36.83
2018-10-05T06:10:50.066Z,29.07
2018-10-05T06:13:18.760Z,21.13
2018-10-05T06:15:47.382Z,23.83
2018-10-05T06:18:16.232Z,22.57
2018-10-05T06:20:48.643Z,12.73
2018-10-05T06:23:17.229Z,20.30
2018-10-05T06:25:46.163Z,14.57
2018-10-05T06:28:14.765Z,18.30
2018-10-05T06:30:43.670Z,31.70
2018-10-05T06:33:13.018Z,13.03
2018-10-05T06:35:41.590Z,14.13
2018-10-05T06:38:10.353Z,15.27
2018-10-05T06:40:38.912Z,20.50
2018-10-05T06:43:07.997Z,17.00
2018-10-05T06:45:37.403Z,14.03
2018-10-05T06:48:06.382Z,19.00
2018-10-05T06:50:35.085Z,27.47
2018-10-05T06:53:03.792Z,17.83
2018-10-05T06:55:32.325Z,15.73
2018-10-05T06:58:00.895Z,16.27
2018-10-05T07:00:29.475Z,15.50
2018-10-05T07:02:58.587Z,13.33
2018-10-05T07:05:27.069Z,13.63
2018-10-05T07:07:55.898Z,10.80
2018-10-05T07:10:27.765Z,16.20
2018-10-05T07:13:01.042Z,7.90
2018-10-05T07:15:30.801Z,9.70
2018-10-05T07:18:03.211Z,10.53
2018-10-05T07:20:34.818Z,8.17
2018-10-05T07:23:05.157Z,8.27
2018-10-05T07:25:34.775Z,12.53
2018-10-05T07:28:06.397Z,8.60
2018-10-05T07:30:40.444Z,7.40
2018-10-05T07:33:10.752Z,9.27
2018-10-05T07:35:43.246Z,6.93
2018-10-05T07:38:13.914Z,9.90
2018-10-05T07:40:47.313Z,12.90
2018-10-05T07:43:17.585Z,7.37
2018-10-05T07:45:53.683Z,6.23
2018-10-05T07:48:25.796Z,9.20
2018-10-05T07:51:07.779Z,9.60
2018-10-05T07:53:42.731Z,9.60
2018-10-05T07:56:15.860Z,11.03
2018-10-05T07:58:45.167Z,13.90
2018-10-05T08:01:21.053Z,10.97
2018-10-05T08:03:56.154Z,10.57
2018-10-05T08:06:29.084Z,9.03
2018-10-05T08:09:06.877Z,6.57
2018-10-05T08:11:40.010Z,8.00
2018-10-05T08:14:12.087Z,11.00
2018-10-05T08:16:44.954Z,11.63
2018-10-05T08:19:14.526Z,7.03
2018-10-05T08:21:47.984Z,7.90
2018-10-05T08:24:29.827Z,7.80
2018-10-05T08:27:03.074Z,7.03
2018-10-05T08:29:33.616Z,15.63
2018-10-05T08:32:04.654Z,9.37
2018-10-05T08:34:38.305Z,7.33
2018-10-05T08:37:13.795Z,6.97
2018-10-05T08:39:48.103Z,7.00
2018-10-05T08:42:19.621Z,6.37
2018-10-05T08:44:51.683Z,9.70
2018-10-05T08:47:22.701Z,11.80
2018-10-05T08:49:56.630Z,13.33
2018-10-05T08:52:31.496Z,4.87
2018-10-05T08:55:09.371Z,9.23
2018-10-05T08:57:41.776Z,8.40
2018-10-05T09:00:16.569Z,25.33
2018-10-05T09:02:47.169Z,13.77
2018-10-05T09:05:22.501Z,10.73
2018-10-05T09:07:54.459Z,15.57
2018-10-05T09:10:27.196Z,7.83
2018-10-05T09:13:01.758Z,6.27
2018-10-05T09:15:34.340Z,7.13
2018-10-05T09:18:07.507Z,7.73
2018-10-05T09:20:38.778Z,7.23
2018-10-05T09:23:12.721Z,7.50
2018-10-05T09:25:43.540Z,4.47
2018-10-05T09:28:17.144Z,8.70
2018-10-05T09:30:51.301Z,12.80
2018-10-05T09:33:22.420Z,9.50
2018-10-05T09:35:57.584Z,6.27
2018-10-05T09:38:28.763Z,6.17
2018-10-05T09:41:03.996Z,16.00
2018-10-05T09:43:37.576Z,11.90
2018-10-05T09:46:12.206Z,13.83
2018-10-05T09:48:42.586Z,10.10
2018-10-05T09:51:12.879Z,15.40
2018-10-05T09:53:41.318Z,11.77
2018-10-05T09:56:10.625Z,9.00
2018-10-05T09:58:40.176Z,8.37
2018-10-05T10:01:13.929Z,12.30
2018-10-05T10:03:42.929Z,6.17
2018-10-05T10:06:12.402Z,13.63
2018-10-05T10:08:41.559Z,9.87
2018-10-05T10:11:11.220Z,9.80
2018-10-05T10:13:41.215Z,13.67
2018-10-05T10:16:12.980Z,13.90
2018-10-05T10:18:42.361Z,7.30
2018-10-05T10:21:11.405Z,7.60
2018-10-05T10:23:40.211Z,9.07
2018-10-05T10:26:08.994Z,7.90
2018-10-05T10:28:38.192Z,9.40
2018-10-05T10:31:08.544Z,5.70
2018-10-05T10:33:37.395Z,5.20
2018-10-05T10:36:07.543Z,4.50
2018-10-05T10:38:40.749Z,5.23
2018-10-05T10:41:10.420Z,6.07
2018-10-05T10:43:41.304Z,6.23
2018-10-05T10:46:11.044Z,8.93
2018-10-05T10:48:41.034Z,13.87
2018-10-05T10:51:12.957Z,8.50
2018-10-05T10:53:44.186Z,8.93
2018-10-05T10:56:15.301Z,7.93
2018-10-05T10:58:43.993Z,6.30
2018-10-05T11:01:13.721Z,8.30
2018-10-05T11:03:42.888Z,8.00
2018-10-05T11:06:13.043Z,3.60
2018-10-05T11:08:43.514Z,4.47
2018-10-05T11:11:13.299Z,3.30
2018-10-05T11:13:43.972Z,7.57
2018-10-05T11:16:12.803Z,9.50
2018-10-05T11:18:56.542Z,6.50
2018-10-05T11:21:28.735Z,4.20
2018-10-05T11:24:01.434Z,3.73
2018-10-05T11:26:31.861Z,10.87
2018-10-05T11:29:01.538Z,5.70
2018-10-05T11:31:31.623Z,4.63
2018-10-05T11:34:03.987Z,4.23
2018-10-05T11:36:33.116Z,2.90
2018-10-05T11:39:04.318Z,2.40
2018-10-05T11:41:38.225Z,6.40
2018-10-05T11:44:09.928Z,3.90
2018-10-05T11:46:39.063Z,5.70
2018-10-05T11:49:15.373Z,2.30
2018-10-05T11:51:47.419Z,1.97
2018-10-05T11:54:16.793Z,2.87
2018-10-05T11:56:53.553Z,8.23
2018-10-05T11:59:25.816Z,4.30
2018-10-05T12:01:58.349Z,4.47
2018-10-05T12:04:40.912Z,3.07
2018-10-05T12:09:58.321Z,4.00
2018-10-05T12:12:29.280Z,4.60
2018-10-05T12:15:06.378Z,4.30
2018-10-05T12:17:37.580Z,6.10
2018-10-05T12:20:16.104Z,10.23
2018-10-05T12:22:45.537Z,6.47
2018-10-05T12:25:14.800Z,2.83
2018-10-05T12:28:06.708Z,2.20
2018-10-05T12:30:37.514Z,5.93
2018-10-05T12:33:06.876Z,7.13
2018-10-05T12:35:38.737Z,9.33
2018-10-05T12:38:08.798Z,4.63
2018-10-05T12:40:37.487Z,3.40
2018-10-05T12:43:06.116Z,2.53
2018-10-05T12:45:36.862Z,4.60
2018-10-05T12:48:05.636Z,6.50
2018-10-05T12:50:34.335Z,1.83
2018-10-05T12:53:04.298Z,7.70
2018-10-05T12:55:32.837Z,2.03
2018-10-05T12:58:06.486Z,2.93
2018-10-05T13:00:35.048Z,5.30
2018-10-05T13:03:09.763Z,2.67
2018-10-05T13:05:39.488Z,1.80
2018-10-05T13:08:09.150Z,4.47
2018-10-05T13:10:38.208Z,6.30
2018-10-05T13:13:14.408Z,7.67
2018-10-05T13:15:45.432Z,4.30
2018-10-05T13:18:15.079Z,2.30
2018-10-05T13:20:48.135Z,5.97
2018-10-05T13:23:47.375Z,2.50
2018-10-05T13:26:17.054Z,3.67
2018-10-05T13:28:45.646Z,1.57
2018-10-05T13:31:15.520Z,1.90
2018-10-05T13:33:44.333Z,2.53
2018-10-05T13:36:12.856Z,5.27
2018-10-05T13:38:41.433Z,2.43
2018-10-05T13:41:11.365Z,3.50
2018-10-05T13:43:40.932Z,5.70
2018-10-05T13:46:09.811Z,5.47
2018-10-05T13:48:38.469Z,3.43
2018-10-05T13:51:08.083Z,2.70
2018-10-05T13:53:36.749Z,3.07
2018-10-05T13:56:05.506Z,1.90
2018-10-05T13:58:34.965Z,2.63
2018-10-05T14:01:03.373Z,4.33
2018-10-05T14:03:33.434Z,2.37
2018-10-05T14:08:43.482Z,3.93
2018-10-05T14:11:12.780Z,2.07
2018-10-05T14:13:41.236Z,1.50
2018-10-05T14:16:09.625Z,5.20
2018-10-05T14:18:38.071Z,3.50
2018-10-05T14:21:06.694Z,3.13
2018-10-05T14:23:35.121Z,2.70
2018-10-05T14:26:03.721Z,3.93
2018-10-05T14:28:32.290Z,4.13
2018-10-05T14:31:01.667Z,2.77
2018-10-05T14:33:30.115Z,2.03
2018-10-05T14:35:58.599Z,3.87
2018-10-05T14:38:27.019Z,1.77
2018-10-05T14:40:55.758Z,2.70
2018-10-05T14:43:24.600Z,3.87
2018-10-05T14:45:53.365Z,2.10
2018-10-05T14:48:21.746Z,5.50
2018-10-05T14:50:50.318Z,2.20
2018-10-05T14:53:18.828Z,2.00
2018-10-05T14:55:47.406Z,4.27
2018-10-05T14:58:15.853Z,1.97
2018-10-05T15:00:44.948Z,1.67
2018-10-05T15:03:16.246Z,1.97
2018-10-05T15:05:44.714Z,6.70
2018-10-05T15:08:14.786Z,1.57
2018-10-05T15:10:48.653Z,2.20
2018-10-05T15:13:19.392Z,1.57
2018-10-05T15:15:49.704Z,2.90
2018-10-05T15:18:23.100Z,3.47
2018-10-05T15:20:51.940Z,2.03
2018-10-05T15:23:20.655Z,1.87
2018-10-05T15:25:50.448Z,1.33
2018-10-05T15:28:21.658Z,1.60
2018-10-05T15:30:53.227Z,1.80
2018-10-05T15:33:22.944Z,2.90
2018-10-05T15:35:53.346Z,1.87
2018-10-05T15:38:23.756Z,1.53
2018-10-05T15:40:54.882Z,1.50
2018-10-05T15:43:25.364Z,5.13
2018-10-05T15:46:08.536Z,1.90
2018-10-05T15:48:39.888Z,8.40
2018-10-05T15:51:24.568Z,2.03
2018-10-05T15:53:58.206Z,3.70
2018-10-05T15:56:27.105Z,1.93
2018-10-05T15:58:55.639Z,4.53
2018-10-05T16:01:29.379Z,1.53
2018-10-05T16:04:01.821Z,3.57
2018-10-05T16:06:31.098Z,3.67
2018-10-05T16:09:06.680Z,5.30
2018-10-05T16:11:35.276Z,2.73
2018-10-05T16:14:04.656Z,5.53
2018-10-05T16:16:33.199Z,2.20
2018-10-05T16:19:03.768Z,2.17
2018-10-05T16:21:32.874Z,13.53
2018-10-05T16:24:03.852Z,12.67
2018-10-05T16:26:35.010Z,5.10
2018-10-05T16:29:07.841Z,5.80
2018-10-05T16:31:51.940Z,4.10
2018-10-05T16:34:21.798Z,3.77
2018-10-05T16:36:50.482Z,4.53
2018-10-05T16:39:25.246Z,13.60
2018-10-05T16:42:00.108Z,2.20
2018-10-05T16:44:28.830Z,3.83
2018-10-05T16:46:58.925Z,3.40
2018-10-05T16:49:27.357Z,4.30
2018-10-05T16:52:17.301Z,4.50
2018-10-05T16:54:53.752Z,5.53
2018-10-05T16:57:24.138Z,3.97
2018-10-05T16:59:54.792Z,4.17
2018-10-05T17:02:27.025Z,6.10
2018-10-05T17:05:01.658Z,5.60
2018-10-05T17:07:33.692Z,9.60
2018-10-05T17:10:12.626Z,7.10
2018-10-05T17:12:49.389Z,3.30
2018-10-05T17:15:19.901Z,8.60
2018-10-05T17:17:54.041Z,9.23
2018-10-05T17:20:36.338Z,9.00
2018-10-05T17:23:10.106Z,4.50
2018-10-05T17:25:41.179Z,5.80
2018-10-05T17:28:10.123Z,5.30
2018-10-05T17:30:40.295Z,11.20
2018-10-05T17:33:10.619Z,5.13
2018-10-05T17:35:42.692Z,4.67
2018-10-05T17:38:11.996Z,4.97
2018-10-05T17:40:40.475Z,3.90
2018-10-05T17:43:08.960Z,4.70
2018-10-05T17:45:37.537Z,3.60
2018-10-05T17:48:06.484Z,6.30
2018-10-05T17:50:36.494Z,8.57
2018-10-05T17:53:06.272Z,4.80
2018-10-05T17:55:35.130Z,5.50
2018-10-05T17:58:06.029Z,3.17
2018-10-05T18:00:43.902Z,4.73
2018-10-05T18:03:40.989Z,4.97
2018-10-05T18:06:14.872Z,4.63
2018-10-05T18:08:43.474Z,5.23
2018-10-05T18:11:12.002Z,4.30
2018-10-05T18:13:40.893Z,4.10
2018-10-05T18:16:09.407Z,4.87
2018-10-05T18:18:39.082Z,5.97
2018-10-05T18:21:08.590Z,4.00
2018-10-05T18:23:40.905Z,4.43
2018-10-05T18:26:09.510Z,6.57
2018-10-05T18:28:38.272Z,4.63
2018-10-05T18:31:07.561Z,10.53
2018-10-05T18:33:35.950Z,2.60
2018-10-05T18:36:04.573Z,2.53
2018-10-05T18:38:33.930Z,3.40
2018-10-05T18:41:03.046Z,3.83
2018-10-05T18:43:32.374Z,2.70
2018-10-05T18:46:02.152Z,7.37
2018-10-05T18:48:31.185Z,2.97
2018-10-05T18:51:00.452Z,2.90
2018-10-05T18:53:29.776Z,2.87
2018-10-05T18:56:07.328Z,5.10
2018-10-05T18:58:41.642Z,3.10
2018-10-05T19:01:10.098Z,3.17
2018-10-05T19:03:39.191Z,9.03
2018-10-05T19:06:07.746Z,4.03
2018-10-05T19:08:37.269Z,3.37
2018-10-05T19:11:05.884Z,7.50
2018-10-05T19:13:38.569Z,5.70
2018-10-05T19:16:08.309Z,4.30
2018-10-05T19:18:36.937Z,7.83
2018-10-05T19:21:06.897Z,5.40
2018-10-05T19:23:36.049Z,5.20
2018-10-05T19:26:04.666Z,4.07
2018-10-05T19:28:33.259Z,4.80
2018-10-05T19:31:01.899Z,17.20
2018-10-05T19:33:30.362Z,3.77
2018-10-05T19:35:59.372Z,4.87
2018-10-05T19:44:33.700Z,6.10
2018-10-05T19:47:02.122Z,4.73
2018-10-05T19:49:30.879Z,6.57
2018-10-05T19:51:59.313Z,8.30
2018-10-05T19:54:28.284Z,6.13
2018-10-05T19:56:58.746Z,6.07
2018-10-05T19:59:27.363Z,7.17
2018-10-05T20:01:55.976Z,4.07
2018-10-05T20:04:25.441Z,7.90
2018-10-05T20:06:54.248Z,3.97
2018-10-05T20:09:22.979Z,13.20
2018-10-05T20:11:53.359Z,6.10
2018-10-05T20:14:22.101Z,10.47
2018-10-05T20:16:56.751Z,6.93
2018-10-05T20:19:25.363Z,3.93
2018-10-05T20:21:53.955Z,11.33
2018-10-05T20:24:25.646Z,4.30
2018-10-05T20:26:54.026Z,9.00
2018-10-05T20:29:22.561Z,10.60
2018-10-05T20:31:51.089Z,6.57
2018-10-05T20:34:22.251Z,10.70
2018-10-05T20:39:34.954Z,5.70
2018-10-05T20:42:05.908Z,8.33
2018-10-05T20:44:36.395Z,7.47
2018-10-05T20:47:06.660Z,19.73
2018-10-05T20:49:35.519Z,6.63
2018-10-05T20:52:07.219Z,10.20
2018-10-05T20:54:36.170Z,18.47
2018-10-05T20:57:04.649Z,6.83
2018-10-05T20:59:33.111Z,6.10
2018-10-05T21:02:01.676Z,6.37
2018-10-05T21:04:30.107Z,6.20
2018-10-05T21:06:58.753Z,12.57
2018-10-05T21:09:27.182Z,10.13
2018-10-05T21:11:55.609Z,6.00
2018-10-05T21:14:24.025Z,13.70
2018-10-05T21:16:52.495Z,6.90
2018-10-05T21:19:20.832Z,7.57
2018-10-05T21:21:49.238Z,8.33
2018-10-05T21:24:17.693Z,7.57
2018-10-05T21:26:46.392Z,11.43
2018-10-05T21:29:14.839Z,8.07
2018-10-05T21:31:44.473Z,11.27
2018-10-05T21:34:13.107Z,10.83
2018-10-05T21:36:41.604Z,21.00
2018-10-05T21:39:11.397Z,11.20
2018-10-05T21:41:40.920Z,19.63
2018-10-05T21:44:09.307Z,15.77
2018-10-05T21:46:38.621Z,8.90
2018-10-05T21:49:07.348Z,14.50
2018-10-05T21:51:35.863Z,10.97
2018-10-05T21:54:04.417Z,12.17
2018-10-05T21:56:33.001Z,11.83
2018-10-05T21:59:01.859Z,14.30
2018-10-05T22:01:30.473Z,18.03
2018-10-05T22:03:58.948Z,15.53
2018-10-05T22:06:27.372Z,14.77
2018-10-05T22:08:55.816Z,13.70
2018-10-05T22:11:24.229Z,21.77
2018-10-05T22:13:53.481Z,9.63
2018-10-05T22:16:21.916Z,10.50
2018-10-05T22:18:51.699Z,19.53
2018-10-05T22:21:20.022Z,8.70
2018-10-05T22:23:48.391Z,10.47
2018-10-05T22:26:17.673Z,10.70
2018-10-05T22:28:46.144Z,9.93
2018-10-05T22:31:14.607Z,9.80
2018-10-05T22:33:43.033Z,10.53
2018-10-05T22:36:11.790Z,12.53
2018-10-05T22:38:40.239Z,8.97
2018-10-05T22:41:08.836Z,12.93
2018-10-05T22:43:37.320Z,14.67
2018-10-05T22:46:06.704Z,11.87
2018-10-05T22:48:36.003Z,13.77
2018-10-05T22:51:06.873Z,20.10
2018-10-05T22:53:35.672Z,14.87
2018-10-05T22:56:05.231Z,13.37
2018-10-05T22:58:34.163Z,20.00
2018-10-05T23:01:02.740Z,15.33
2018-10-05T23:03:31.886Z,29.20
2018-10-05T23:06:00.452Z,13.50
2018-10-05T23:08:28.997Z,17.90
2018-10-05T23:10:57.339Z,11.87
2018-10-05T23:13:25.754Z,16.20
2018-10-05T23:15:54.316Z,15.80
2018-10-05T23:18:24.622Z,12.20
2018-10-05T23:20:53.193Z,14.73
2018-10-05T23:23:23.275Z,13.93
2018-10-05T23:25:51.700Z,17.33
2018-10-05T23:28:20.217Z,19.50
2018-10-05T23:30:48.670Z,14.00
2018-10-05T23:33:17.188Z,21.40
2018-10-05T23:35:45.747Z,16.40
2018-10-05T23:38:14.174Z,33.40
2018-10-05T23:40:42.849Z,25.60
2018-10-05T23:43:11.509Z,20.90
2018-10-05T23:45:39.860Z,26.50
2018-10-05T23:48:08.395Z,29.67
2018-10-05T23:50:36.819Z,29.87
2018-10-05T23:53:05.155Z,24.80
2018-10-05T23:55:33.882Z,20.63
2018-10-05T23:58:02.407Z,23.30
